Pontiac, South Carolina
Current Conditions -  °F | °C
As of 11:55 AM on Tuesday 21 Oct 2014 (Local Time) from KCDN Reporting Station
Clear Clear  
Wind Chill: 20°   Ceiling: Unl
Heat Index: 20°   Visibility: 10mi
Dew Point: 10°   Wind: 0mph
Humidity: 52%   Direction: NA
Pressure: 29.96"   Gusts: NA
Location:  34.1767°N, 80.8184°W
Report Text: KCDN 211555Z AUTO 00000KT 10SM CLR 20/10 A2996 RMK AO2 TSNO
Loading
Personal Weather Stations






























Interactive Weather Map
Tropical Storm Tracking
New forecast layout! Learn more

10-Day Weather Forecast

Advertisements
Track Severe Weather on mobile